Terminal Aerodrome Forecast
Issued by NWS

Home | Current Version | Previous Version | Text Only | Print | Product List | Glossary Off
Versions: 1 2 3 4 5 6 7 8 9 10 11 12 13 14 15 16 17 18 19 20 21 22 23 24 25 26 27
000 FTUS41 KBOX 012321 TAFHYA TAF KHYA 012321Z 0200/0224 20005KT P6SM BKN140 FM021200 10004KT P6SM OVC030 FM021500 10005KT 3SM -RA OVC030 FM021900 09007KT 3SM -RA OVC015=

USA.gov is the U.S. government's official web portal to all federal, state and local government web resources and services.